^^
Station Historical Data
Daily Summary for April 20, 2017 Units:  English    Metric   Both
« Previous Day
Next Day »
Daily Weekly Monthly Yearly Custom
  High: Low: Average:
Temperature: 72.7 °F 53.0 °F 61.1 °F
Dew Point: 58.4 °F 47.1 °F 53 °F
Humidity: 87 % 58 % 76 %
Wind Speed: 7.4 mph 0.0 mph 1.2 mph
Wind Gust: 11.5 mph - -
Wind:- - ESE
Pressure: 30.21 in 29.96 in -
Precipitation: 0.05 in    
Historical Graphs
 
 
Tabular Data for April 20, 2017
Time Temperature Dew Point Pressure Wind Wind Speed Wind Gust Humidity Rainfall Rate (Hourly) solar Conditions
00:04 53.5 °F 47.1 °F 30.21 in Calm     79 % 0.00 in 0.0 W/m2 OVC
00:09 53.5 °F 47.1 °F 30.21 in SSW 1.0 mph 5.0 mph 79 % 0.00 in 0.0 W/m2 OVC
00:14 53.5 °F 47.1 °F 30.21 in SSW 1.0 mph 4.0 mph 79 % 0.00 in 0.0 W/m2 OVC
00:19 53.6 °F 47.6 °F 30.20 in Calm   3.0 mph 80 % 0.00 in 0.0 W/m2 OVC
00:24 53.6 °F 47.6 °F 30.21 in SSW 1.0 mph 3.0 mph 80 % 0.00 in 0.0 W/m2 OVC
00:29 53.5 °F 47.5 °F 30.20 in Calm   3.0 mph 80 % 0.00 in 0.0 W/m2 OVC
00:34 53.6 °F 47.6 °F 30.20 in Calm   3.0 mph 80 % 0.00 in 0.0 W/m2 OVC
00:39 53.5 °F 47.8 °F 30.20 in SSW 1.0 mph 5.0 mph 81 % 0.00 in 0.0 W/m2 OVC
00:44 53.6 °F 47.9 °F 30.20 in Calm   3.0 mph 81 % 0.00 in 0.0 W/m2 OVC
00:49 53.6 °F 47.9 °F 30.19 in SSW 3.0 mph 4.0 mph 81 % 0.00 in 0.0 W/m2 OVC
00:54 53.5 °F 47.8 °F 30.19 in SSW 3.0 mph 5.0 mph 81 % 0.00 in 0.0 W/m2 OVC
00:59 53.5 °F 47.8 °F 30.19 in SSW 3.0 mph 4.0 mph 81 % 0.00 in 0.0 W/m2 OVC
01:04 53.5 °F 48.1 °F 30.19 in SSW 1.0 mph 8.0 mph 82 % 0.00 in 0.0 W/m2 OVC
01:09 53.5 °F 48.1 °F 30.18 in SSW 2.0 mph 5.0 mph 82 % 0.00 in 0.0 W/m2 OVC
01:14 53.5 °F 48.1 °F 30.18 in SSW 3.0 mph 9.0 mph 82 % 0.00 in 0.0 W/m2 OVC
01:19 53.5 °F 48.1 °F 30.18 in SSW 2.0 mph 4.0 mph 82 % 0.00 in 0.0 W/m2 OVC
01:24 53.4 °F 48.0 °F 30.18 in Calm   3.0 mph 82 % 0.00 in 0.0 W/m2 OVC
01:29 53.5 °F 48.1 °F 30.18 in SW 2.0 mph 8.0 mph 82 % 0.00 in 0.0 W/m2 OVC
01:34 53.5 °F 48.1 °F 30.18 in Calm   3.0 mph 82 % 0.00 in 0.0 W/m2 OVC
01:39 53.5 °F 48.1 °F 30.17 in Calm   4.0 mph 82 % 0.00 in 0.0 W/m2 OVC
01:44 53.6 °F 48.6 °F 30.17 in SW 2.0 mph 5.0 mph 83 % 0.00 in 0.0 W/m2 OVC
01:49 53.7 °F 48.7 °F 30.17 in SSW 3.0 mph 6.0 mph 83 % 0.00 in 0.0 W/m2 OVC
01:54 53.6 °F 48.6 °F 30.17 in SSW 3.0 mph 5.0 mph 83 % 0.00 in 0.0 W/m2 OVC
01:59 53.8 °F 48.8 °F 30.16 in SSW 1.0 mph 6.0 mph 83 % 0.00 in 0.0 W/m2 OVC
02:04 53.7 °F 48.7 °F 30.16 in Calm   3.0 mph 83 % 0.00 in 0.0 W/m2 OVC
02:09 53.7 °F 49.0 °F 30.16 in Calm   3.0 mph 84 % 0.00 in 0.0 W/m2 OVC
02:14 53.7 °F 49.0 °F 30.16 in Calm   3.0 mph 84 % 0.00 in 0.0 W/m2 OVC
02:19 53.8 °F 49.1 °F 30.16 in SSW 1.0 mph 3.0 mph 84 % 0.00 in 0.0 W/m2 OVC
02:24 53.9 °F 49.2 °F 30.15 in Calm     84 % 0.00 in 0.0 W/m2 OVC
02:29 54.0 °F 49.3 °F 30.15 in Calm     84 % 0.00 in 0.0 W/m2 OVC
02:34 54.0 °F 49.3 °F 30.15 in Calm     84 % 0.00 in 0.0 W/m2 OVC
02:39 54.0 °F 49.3 °F 30.15 in Calm     84 % 0.00 in 0.0 W/m2 OVC
02:44 53.8 °F 49.1 °F 30.14 in Calm     84 % 0.00 in 0.0 W/m2 OVC
02:49 53.9 °F 49.2 °F 30.14 in Calm     84 % 0.00 in 0.0 W/m2 OVC
02:54 53.8 °F 49.1 °F 30.14 in Calm     84 % 0.00 in 0.0 W/m2 OVC
02:59 53.8 °F 49.1 °F 30.14 in Calm     84 % 0.00 in 0.0 W/m2 OVC
03:04 53.8 °F 49.1 °F 30.13 in Calm     84 % 0.00 in 0.0 W/m2 OVC
03:09 53.8 °F 49.4 °F 30.13 in Calm     85 % 0.00 in 0.0 W/m2 OVC
03:14 53.9 °F 49.5 °F 30.13 in Calm     85 % 0.00 in 0.0 W/m2 OVC
03:19 53.9 °F 49.5 °F 30.13 in Calm     85 % 0.00 in 0.0 W/m2 OVC
03:24 53.9 °F 49.5 °F 30.13 in Calm     85 % 0.00 in 0.0 W/m2 OVC
03:29 53.9 °F 49.5 °F 30.13 in Calm     85 % 0.00 in 0.0 W/m2 OVC
03:34 53.9 °F 49.5 °F 30.13 in Calm     85 % 0.00 in 0.0 W/m2 OVC
03:39 53.9 °F 49.5 °F 30.13 in Calm     85 % 0.00 in 0.0 W/m2 OVC
03:44 53.8 °F 49.4 °F 30.13 in Calm     85 % 0.00 in 0.0 W/m2 OVC
03:49 53.8 °F 49.4 °F 30.12 in Calm     85 % 0.00 in 0.0 W/m2 OVC
03:54 53.8 °F 49.4 °F 30.12 in Calm     85 % 0.00 in 0.0 W/m2 OVC
03:59 53.7 °F 49.3 °F 30.12 in Calm     85 % 0.00 in 0.0 W/m2 OVC
04:04 53.7 °F 49.3 °F 30.11 in Calm     85 % 0.00 in 0.0 W/m2 OVC
04:09 53.6 °F 49.2 °F 30.11 in Calm     85 % 0.00 in 0.0 W/m2 OVC
04:14 53.6 °F 49.2 °F 30.11 in Calm     85 % 0.00 in 0.0 W/m2 OVC
04:19 53.7 °F 49.3 °F 30.10 in Calm     85 % 0.00 in 0.0 W/m2 OVC
04:24 53.6 °F 49.2 °F 30.10 in Calm     85 % 0.00 in 0.0 W/m2 OVC
04:29 53.7 °F 49.3 °F 30.09 in Calm     85 % 0.00 in 0.0 W/m2 OVC
04:34 53.7 °F 49.3 °F 30.09 in Calm     85 % 0.00 in 0.0 W/m2 OVC
04:39 53.6 °F 49.2 °F 30.08 in Calm     85 % 0.00 in 0.0 W/m2 OVC
04:44 53.3 °F 49.2 °F 30.08 in Calm     86 % 0.00 in 0.0 W/m2 OVC
04:49 53.1 °F 49.0 °F 30.08 in Calm   2.0 mph 86 % 0.00 in 0.0 W/m2 OVC
04:54 53.0 °F 48.9 °F 30.08 in Calm     86 % 0.00 in 0.0 W/m2 OVC
04:59 53.0 °F 48.9 °F 30.08 in Calm     86 % 0.00 in 0.0 W/m2 OVC
05:04 53.0 °F 48.9 °F 30.08 in Calm     86 % 0.00 in 0.0 W/m2 OVC
05:09 53.0 °F 49.2 °F 30.08 in Calm     87 % 0.00 in 0.0 W/m2 OVC
05:14 53.0 °F 49.2 °F 30.08 in Calm     87 % 0.00 in 0.0 W/m2 OVC
05:19 53.1 °F 49.3 °F 30.09 in Calm     87 % 0.00 in 0.0 W/m2 OVC
05:24 53.2 °F 49.4 °F 30.10 in Calm     87 % 0.00 in 0.0 W/m2 OVC
05:29 53.1 °F 49.3 °F 30.10 in Calm     87 % 0.00 in 0.0 W/m2 OVC
05:34 53.1 °F 49.3 °F 30.10 in Calm     87 % 0.00 in 0.0 W/m2 OVC
05:39 53.1 °F 49.3 °F 30.10 in Calm     87 % 0.00 in 0.0 W/m2 OVC
05:44 53.2 °F 49.4 °F 30.10 in Calm     87 % 0.00 in 0.0 W/m2 OVC
05:49 53.2 °F 49.1 °F 30.11 in Calm     86 % 0.00 in 0.0 W/m2 OVC
05:54 53.1 °F 49.3 °F 30.11 in Calm     87 % 0.00 in 0.0 W/m2 OVC
05:59 53.2 °F 49.1 °F 30.11 in Calm     86 % 0.00 in 0.0 W/m2 OVC
06:04 53.2 °F 49.1 °F 30.11 in Calm     86 % 0.00 in 0.0 W/m2 OVC
06:09 53.2 °F 49.4 °F 30.11 in Calm     87 % 0.00 in 0.0 W/m2 OVC
06:14 53.3 °F 49.5 °F 30.12 in Calm     87 % 0.00 in 0.0 W/m2 OVC
06:19 53.6 °F 49.8 °F 30.12 in Calm     87 % 0.00 in 0.0 W/m2 OVC
06:24 53.6 °F 49.8 °F 30.12 in Calm     87 % 0.00 in 0.0 W/m2 OVC
06:29 53.7 °F 49.6 °F 30.12 in Calm     86 % 0.00 in 0.0 W/m2 OVC
06:34 53.6 °F 49.5 °F 30.12 in Calm     86 % 0.00 in 0.0 W/m2 OVC
06:39 53.7 °F 49.6 °F 30.12 in Calm     86 % 0.00 in 0.0 W/m2 OVC
06:44 53.7 °F 49.6 °F 30.12 in Calm     86 % 0.00 in 0.0 W/m2 OVC
06:49 53.6 °F 49.5 °F 30.13 in Calm     86 % 0.00 in 5.0 W/m2 OVC
06:54 53.6 °F 49.5 °F 30.12 in Calm   1.0 mph 86 % 0.00 in 7.0 W/m2 OVC
06:59 53.6 °F 49.5 °F 30.12 in Calm     86 % 0.00 in 7.0 W/m2 OVC
07:04 53.5 °F 49.4 °F 30.13 in Calm     86 % 0.00 in 9.0 W/m2 OVC
07:09 53.4 °F 49.3 °F 30.12 in Calm   2.0 mph 86 % 0.00 in 11.0 W/m2 OVC
07:14 53.3 °F 49.2 °F 30.12 in Calm     86 % 0.00 in 12.0 W/m2 OVC
07:19 53.3 °F 49.5 °F 30.12 in Calm     87 % 0.00 in 16.0 W/m2 OVC
07:24 53.3 °F 49.5 °F 30.12 in Calm     87 % 0.00 in 21.0 W/m2 OVC
07:29 53.3 °F 49.5 °F 30.12 in Calm     87 % 0.00 in 26.0 W/m2 OVC
07:34 53.2 °F 49.4 °F 30.12 in Calm     87 % 0.00 in 26.0 W/m2 OVC
07:39 53.3 °F 49.5 °F 30.12 in Calm     87 % 0.00 in 28.0 W/m2 OVC
07:44 53.2 °F 49.4 °F 30.12 in Calm     87 % 0.00 in 32.0 W/m2 OVC
07:49 53.4 °F 49.6 °F 30.12 in Calm     87 % 0.00 in 32.0 W/m2 OVC
07:54 53.4 °F 49.6 °F 30.12 in Calm     87 % 0.00 in 47.0 W/m2 OVC
07:59 53.4 °F 49.6 °F 30.12 in Calm     87 % 0.00 in 44.0 W/m2 OVC
08:04 53.4 °F 49.3 °F 30.13 in Calm     86 % 0.00 in 49.0 W/m2 OVC
08:09 53.5 °F 49.4 °F 30.13 in Calm     86 % 0.00 in 70.0 W/m2 OVC
08:14 53.5 °F 49.4 °F 30.13 in Calm     86 % 0.00 in 79.0 W/m2 OVC
08:19 53.5 °F 49.4 °F 30.13 in Calm     86 % 0.00 in 95.0 W/m2 OVC
08:24 53.6 °F 49.5 °F 30.12 in Calm     86 % 0.00 in 127.0 W/m2 BKN
08:29 53.7 °F 49.6 °F 30.12 in Calm     86 % 0.00 in 125.0 W/m2 BKN
08:34 54.3 °F 49.9 °F 30.12 in Calm     85 % 0.00 in 151.0 W/m2 BKN
08:39 54.3 °F 49.9 °F 30.12 in WSW 2.0 mph 3.0 mph 85 % 0.00 in 160.0 W/m2 BKN
08:44 54.4 °F 50.0 °F 30.12 in Calm   2.0 mph 85 % 0.00 in 174.0 W/m2 BKN
08:49 54.5 °F 49.8 °F 30.12 in Calm     84 % 0.00 in 185.0 W/m2 BKN
08:54 54.6 °F 50.2 °F 30.12 in Calm     85 % 0.00 in 146.0 W/m2 OVC
09:03 55.1 °F 50.7 °F 30.12 in Calm     85 % 0.00 in 120.0 W/m2 BKN
09:08 55.2 °F 50.4 °F 30.12 in Calm     84 % 0.00 in 167.0 W/m2 BKN
09:13 55.3 °F 50.5 °F 30.12 in Calm     84 % 0.00 in 167.0 W/m2 BKN
09:18 55.4 °F 50.6 °F 30.12 in Calm     84 % 0.00 in 171.0 W/m2 BKN
09:23 55.6 °F 50.8 °F 30.13 in Calm     84 % 0.00 in 132.0 W/m2 BKN
09:28 55.7 °F 50.9 °F 30.12 in Calm     84 % 0.00 in 183.0 W/m2 BKN
09:33 55.6 °F 50.8 °F 30.12 in Calm     84 % 0.00 in 239.0 W/m2 BKN
09:38 56.3 °F 51.2 °F 30.12 in Calm     83 % 0.00 in 243.0 W/m2 SCT
09:43 56.1 °F 51.0 °F 30.11 in North 1.0 mph 1.0 mph 83 % 0.00 in 279.0 W/m2 BKN
09:48 56.4 °F 51.3 °F 30.12 in Calm     83 % 0.00 in 193.0 W/m2 BKN
09:53 56.7 °F 51.6 °F 30.12 in Calm     83 % 0.00 in 547.0 W/m2 SCT
09:58 57.6 °F 52.5 °F 30.12 in Calm   3.5 mph 83 % 0.00 in 211.0 W/m2 SCT
10:03 57.3 °F 51.9 °F 30.12 in Calm     82 % 0.00 in 325.0 W/m2 SCT
10:08 57.0 °F 51.6 °F 30.12 in Calm     82 % 0.00 in 304.0 W/m2 BKN
10:13 57.2 °F 51.8 °F 30.12 in Calm     82 % 0.00 in 392.0 W/m2 SCT
10:18 57.5 °F 52.0 °F 30.12 in North 0.8 mph 3.5 mph 82 % 0.00 in 339.0 W/m2 SCT
10:23 57.8 °F 52.3 °F 30.12 in NNE 4.0 mph 4.6 mph 82 % 0.00 in 352.0 W/m2 SCT
10:28 57.9 °F 52.1 °F 30.12 in Calm   2.3 mph 81 % 0.00 in 339.0 W/m2 SCT
10:33 58.1 °F 52.0 °F 30.12 in Calm   1.2 mph 80 % 0.00 in 445.0 W/m2 SCT
10:38 59.4 °F 53.6 °F 30.12 in NNE 2.4 mph 3.5 mph 81 % 0.00 in 679.0 W/m2 CLR
10:44 59.7 °F 52.8 °F 30.11 in Calm     78 % 0.00 in 835.0 W/m2 FEW
10:49 60.3 °F 53.1 °F 30.11 in NNE 1.1 mph 3.5 mph 77 % 0.00 in 803.0 W/m2 CLR
10:54 60.2 °F 53.0 °F 30.10 in Calm     77 % 0.00 in 803.0 W/m2 CLR
10:59 60.3 °F 52.7 °F 30.10 in Calm     76 % 0.00 in 796.0 W/m2 CLR
11:04 61.0 °F 53.7 °F 30.10 in Calm     77 % 0.00 in 803.0 W/m2 CLR
11:09 61.6 °F 54.0 °F 30.10 in NNE 0.2 mph 3.0 mph 76 % 0.00 in 812.0 W/m2 CLR
11:14 62.8 °F 54.8 °F 30.11 in West 3.0 mph 3.5 mph 75 % 0.00 in 816.0 W/m2 CLR
11:19 62.4 °F 54.0 °F 30.11 in West 2.2 mph 3.5 mph 74 % 0.00 in 830.0 W/m2 CLR
11:24 63.5 °F 55.4 °F 30.10 in West 1.3 mph 3.5 mph 75 % 0.00 in 847.0 W/m2 CLR
11:29 63.0 °F 54.2 °F 30.09 in WNW 2.5 mph 3.5 mph 73 % 0.00 in 849.0 W/m2 CLR
11:34 63.2 °F 54.4 °F 30.09 in SW 0.2 mph 2.3 mph 73 % 0.00 in 844.0 W/m2 CLR
11:39 63.4 °F 55.0 °F 30.09 in Calm     74 % 0.00 in 823.0 W/m2 CLR
11:44 64.0 °F 55.2 °F 30.09 in NNE 1.0 mph 3.5 mph 73 % 0.00 in 998.0 W/m2 CLR
11:49 65.2 °F 56.7 °F 30.09 in NNE 3.3 mph 5.0 mph 74 % 0.00 in 937.0 W/m2 CLR
11:54 65.2 °F 55.6 °F 30.09 in NE 3.5 mph 6.9 mph 71 % 0.00 in 925.0 W/m2 CLR
11:59 65.0 °F 55.0 °F 30.09 in NE 1.4 mph 4.6 mph 70 % 0.00 in 533.0 W/m2 FEW
12:04 64.8 °F 55.2 °F 30.08 in Calm     71 % 0.00 in 874.0 W/m2 CLR
12:09 64.8 °F 55.6 °F 30.08 in Calm     72 % 0.00 in 893.0 W/m2 CLR
12:14 66.0 °F 56.7 °F 30.08 in NE 0.2 mph 1.2 mph 72 % 0.00 in 448.0 W/m2 FEW
12:15 66.2 °F 56.5 °F 30.08 in NE 0.6 mph 3.0 mph 71 % 0.00 in 448.0 W/m2 SCT
12:20 66.3 °F 55.8 °F 30.09 in Calm     69 % 0.00 in 1020.0 W/m2 CLR
12:25 66.2 °F 55.7 °F 30.08 in Calm   3.5 mph 69 % 0.00 in 647.0 W/m2 CLR
12:30 66.8 °F 56.7 °F 30.08 in NNE 5.4 mph 8.1 mph 70 % 0.00 in 963.0 W/m2 CLR
12:35 67.1 °F 56.2 °F 30.08 in NE 2.9 mph 4.6 mph 68 % 0.00 in 482.0 W/m2 CLR
12:40 66.0 °F 55.1 °F 30.08 in Calm   1.2 mph 68 % 0.00 in 631.0 W/m2 SCT
12:45 66.9 °F 56.8 °F 30.08 in NNE 2.8 mph 4.6 mph 70 % 0.00 in 490.0 W/m2 FEW
12:50 66.9 °F 56.4 °F 30.08 in North 4.8 mph 6.9 mph 69 % 0.00 in 517.0 W/m2 SCT
12:55 66.7 °F 55.8 °F 30.08 in NNW 0.1 mph 1.2 mph 68 % 0.00 in 399.0 W/m2 BKN
13:00 66.6 °F 56.1 °F 30.08 in Calm     69 % 0.00 in 397.0 W/m2 BKN
13:05 66.8 °F 55.9 °F 30.08 in ENE 2.7 mph 4.0 mph 68 % 0.00 in 432.0 W/m2 BKN
13:10 66.3 °F 55.8 °F 30.07 in Calm   4.6 mph 69 % 0.00 in 418.0 W/m2 SCT
13:15 66.4 °F 55.9 °F 30.07 in NE 5.8 mph 5.8 mph 69 % 0.00 in 329.0 W/m2 BKN
13:20 65.9 °F 55.4 °F 30.07 in Calm     69 % 0.00 in 362.0 W/m2 BKN
13:25 66.4 °F 56.3 °F 30.07 in Calm   1.0 mph 70 % 0.00 in 446.0 W/m2 SCT
13:30 67.1 °F 56.6 °F 30.06 in NNE 4.9 mph 6.0 mph 69 % 0.00 in 406.0 W/m2 BKN
13:35 66.8 °F 55.9 °F 30.06 in North 3.8 mph 4.6 mph 68 % 0.00 in 438.0 W/m2 SCT
13:40 67.2 °F 56.7 °F 30.06 in NNE 4.8 mph 5.8 mph 69 % 0.00 in 446.0 W/m2 SCT
13:45 67.2 °F 56.7 °F 30.06 in NNE 4.3 mph 5.8 mph 69 % 0.00 in 489.0 W/m2 SCT
13:50 67.7 °F 56.8 °F 30.05 in NNE 6.0 mph 9.2 mph 68 % 0.00 in 482.0 W/m2 SCT
13:55 67.7 °F 56.8 °F 30.05 in NNE 3.4 mph 5.8 mph 68 % 0.00 in 424.0 W/m2 SCT
14:00 67.2 °F 55.9 °F 30.05 in NNE 0.1 mph 2.3 mph 67 % 0.00 in 401.0 W/m2 BKN
14:05 66.9 °F 56.0 °F 30.05 in Calm     68 % 0.00 in 408.0 W/m2 BKN
14:10 67.2 °F 55.9 °F 30.05 in NNW 1.0 mph 3.5 mph 67 % 0.00 in 401.0 W/m2 SCT
14:15 67.4 °F 56.5 °F 30.05 in Calm     68 % 0.00 in 520.0 W/m2 SCT
14:20 68.0 °F 57.0 °F 30.05 in NNW 3.5 mph 5.0 mph 68 % 0.00 in 432.0 W/m2 SCT
14:26 68.5 °F 56.7 °F 30.04 in NW 2.0 mph 3.5 mph 66 % 0.00 in 457.0 W/m2 SCT
14:31 68.3 °F 56.9 °F 30.04 in Calm   1.0 mph 67 % 0.00 in 394.0 W/m2 SCT
14:36 69.0 °F 56.7 °F 30.03 in NNE 2.6 mph 8.0 mph 65 % 0.00 in 675.0 W/m2 CLR
14:41 69.2 °F 56.9 °F 30.03 in North 2.4 mph 3.5 mph 65 % 0.00 in 800.0 W/m2 CLR
14:46 69.7 °F 56.5 °F 30.02 in Calm     63 % 0.00 in 780.0 W/m2 CLR
14:51 70.2 °F 57.0 °F 30.02 in NW 2.9 mph 4.6 mph 63 % 0.00 in 800.0 W/m2 CLR
14:56 70.1 °F 56.9 °F 30.02 in ESE 1.3 mph 3.5 mph 63 % 0.00 in 816.0 W/m2 CLR
15:01 70.1 °F 56.9 °F 30.02 in NNE 2.8 mph 5.8 mph 63 % 0.00 in 789.0 W/m2 CLR
15:06 69.8 °F 56.6 °F 30.02 in NNE 2.2 mph 3.5 mph 63 % 0.00 in 791.0 W/m2 CLR
15:11 70.0 °F 57.3 °F 30.01 in NE 2.4 mph 3.5 mph 64 % 0.00 in 715.0 W/m2 CLR
15:16 70.0 °F 56.8 °F 30.01 in NE 0.2 mph 4.0 mph 63 % 0.00 in 756.0 W/m2 CLR
15:21 70.4 °F 57.6 °F 30.01 in NNE 0.1 mph 1.0 mph 64 % 0.00 in 744.0 W/m2 CLR
15:26 71.3 °F 57.2 °F 30.00 in NNE 0.2 mph 1.2 mph 61 % 0.00 in 696.0 W/m2 CLR
15:31 71.4 °F 57.2 °F 30.00 in Calm   1.2 mph 61 % 0.00 in 737.0 W/m2 CLR
15:36 71.7 °F 57.1 °F 30.00 in South 4.2 mph 5.8 mph 60 % 0.00 in 272.0 W/m2 BKN
15:41 70.9 °F 56.8 °F 30.00 in South 0.1 mph 1.2 mph 61 % 0.00 in 202.0 W/m2 BKN
15:46 70.7 °F 57.0 °F 29.99 in NNE 2.2 mph 4.6 mph 62 % 0.00 in 281.0 W/m2 BKN
15:51 71.1 °F 58.3 °F 29.99 in NNE 5.6 mph 5.8 mph 64 % 0.00 in 696.0 W/m2 BKN
15:56 71.7 °F 58.4 °F 29.99 in NE 0.1 mph 3.5 mph 63 % 0.00 in 679.0 W/m2 CLR
16:01 71.7 °F 57.5 °F 29.99 in ESE 3.8 mph 4.0 mph 61 % 0.00 in 668.0 W/m2 CLR
16:06 71.7 °F 57.5 °F 29.99 in ENE 2.3 mph 3.5 mph 61 % 0.00 in 670.0 W/m2 CLR
16:11 71.5 °F 57.8 °F 29.99 in Calm   1.2 mph 62 % 0.00 in 599.0 W/m2 CLR
16:16 72.3 °F 57.6 °F 29.99 in South 1.0 mph 6.0 mph 60 % 0.00 in 633.0 W/m2 CLR
16:21 72.5 °F 56.9 °F 29.98 in Calm   3.5 mph 58 % 0.00 in 629.0 W/m2 CLR
16:26 72.4 °F 58.2 °F 29.97 in NE 3.2 mph 5.8 mph 61 % 0.00 in 526.0 W/m2 CLR
16:31 72.7 °F 58.0 °F 29.97 in Calm   3.5 mph 60 % 0.00 in 497.0 W/m2 CLR
16:36 72.5 °F 57.4 °F 29.97 in ENE 2.4 mph 5.8 mph 59 % 0.00 in 534.0 W/m2 CLR
16:41 72.7 °F 57.5 °F 29.97 in SE 2.1 mph 4.6 mph 59 % 0.00 in 462.0 W/m2 CLR
16:46 72.3 °F 57.2 °F 29.97 in ESE 0.2 mph 3.0 mph 59 % 0.00 in 418.0 W/m2 CLR
16:51 72.2 °F 57.1 °F 29.98 in East 0.9 mph 3.5 mph 59 % 0.00 in 237.0 W/m2 SCT
16:56 72.2 °F 57.1 °F 29.98 in South 3.1 mph 6.0 mph 59 % 0.00 in 134.0 W/m2 BKN
17:01 72.4 °F 57.3 °F 29.98 in ENE 2.1 mph 3.5 mph 59 % 0.00 in 167.0 W/m2 BKN
17:06 72.0 °F 57.4 °F 29.98 in ESE 3.4 mph 4.0 mph 60 % 0.00 in 169.0 W/m2 BKN
17:11 71.8 °F 57.2 °F 29.98 in East 0.5 mph 3.5 mph 60 % 0.00 in 156.0 W/m2 BKN
17:12 71.7 °F 57.1 °F 29.98 in Calm   1.2 mph 60 % 0.00 in 153.0 W/m2 BKN
17:17 71.6 °F 57.4 °F 29.98 in East 0.7 mph 3.5 mph 61 % 0.00 in 128.0 W/m2 BKN
17:22 71.5 °F 57.3 °F 29.98 in Calm     61 % 0.00 in 118.0 W/m2 BKN
17:27 71.8 °F 58.1 °F 29.98 in Calm     62 % 0.00 in 125.0 W/m2 BKN
17:32 71.5 °F 57.3 °F 29.97 in ESE 0.1 mph 3.5 mph 61 % 0.00 in 97.0 W/m2 BKN
17:37 71.4 °F 57.2 °F 29.97 in ESE 3.6 mph 5.0 mph 61 % 0.00 in 95.0 W/m2 OVC
17:42 71.4 °F 57.7 °F 29.97 in SE 3.6 mph 3.6 mph 62 % 0.00 in 107.0 W/m2 BKN
17:47 71.7 °F 57.5 °F 29.97 in Calm   1.2 mph 61 % 0.00 in 139.0 W/m2 BKN
17:52 71.7 °F 57.5 °F 29.96 in ESE 2.7 mph 4.6 mph 61 % 0.00 in 144.0 W/m2 BKN
17:57 71.6 °F 57.4 °F 29.96 in ESE 2.6 mph 3.0 mph 61 % 0.00 in 127.0 W/m2 BKN
18:02 71.5 °F 57.8 °F 29.96 in ESE 3.4 mph 6.0 mph 62 % 0.00 in 109.0 W/m2 BKN
18:07 71.4 °F 57.7 °F 29.96 in SSE 1.3 mph 5.0 mph 62 % 0.00 in 93.0 W/m2 BKN
18:12 71.2 °F 57.1 °F 29.96 in ESE 2.3 mph 3.5 mph 61 % 0.00 in 90.0 W/m2 BKN
18:17 71.1 °F 57.4 °F 29.96 in ESE 3.8 mph 4.0 mph 62 % 0.00 in 79.0 W/m2 BKN
18:22 70.9 °F 57.2 °F 29.96 in ESE 1.1 mph 3.5 mph 62 % 0.00 in 69.0 W/m2 BKN
18:27 70.9 °F 57.2 °F 29.97 in ESE 0.1 mph 1.2 mph 62 % 0.00 in 47.0 W/m2 OVC
18:32 70.9 °F 57.7 °F 29.96 in SE 0.9 mph 3.5 mph 63 % 0.00 in 47.0 W/m2 OVC
18:37 70.7 °F 57.5 °F 29.96 in ESE 4.1 mph 6.9 mph 63 % 0.00 in 33.0 W/m2 OVC
18:42 70.6 °F 57.4 °F 29.96 in SE 1.6 mph 3.5 mph 63 % 0.00 in 47.0 W/m2 BKN
18:48 70.5 °F 57.3 °F 29.96 in SE 2.3 mph 6.9 mph 63 % 0.00 in 42.0 W/m2 BKN
18:53 70.3 °F 57.1 °F 29.97 in ESE 1.0 mph 3.5 mph 63 % 0.00 in 30.0 W/m2 OVC
18:58 70.3 °F 57.5 °F 29.97 in Calm   1.2 mph 64 % 0.00 in 23.0 W/m2 OVC
19:03 70.2 °F 57.4 °F 29.97 in Calm     64 % 0.00 in 26.0 W/m2 BKN
19:08 70.1 °F 57.4 °F 29.97 in East 2.0 mph 5.8 mph 64 % 0.00 in 18.0 W/m2 OVC
19:13 70.0 °F 57.3 °F 29.97 in ESE 0.1 mph 2.3 mph 64 % 0.00 in 14.0 W/m2 OVC
19:18 69.9 °F 57.6 °F 29.97 in ESE 3.0 mph 3.5 mph 65 % 0.00 in 16.0 W/m2 BKN
19:23 69.8 °F 57.1 °F 29.97 in SE 2.4 mph 6.9 mph 64 % 0.00 in 12.0 W/m2 BKN
19:28 69.7 °F 57.4 °F 29.96 in ESE 1.7 mph 5.8 mph 65 % 0.00 in 9.0 W/m2 OVC
19:33 69.5 °F 57.2 °F 29.96 in ESE 3.1 mph 6.9 mph 65 % 0.00 in 7.0 W/m2 OVC
19:38 69.3 °F 57.0 °F 29.96 in ESE 2.3 mph 3.5 mph 65 % 0.00 in 0.0 W/m2 OVC
19:43 69.2 °F 56.9 °F 29.96 in ESE 0.1 mph   65 % 0.00 in 0.0 W/m2 CLR
19:48 69.0 °F 57.2 °F 29.96 in Calm     66 % 0.00 in 0.0 W/m2 CLR
19:53 68.8 °F 57.0 °F 29.96 in ESE 1.8 mph 3.5 mph 66 % 0.00 in 0.0 W/m2 CLR
19:58 68.6 °F 56.8 °F 29.97 in East 0.3 mph 3.5 mph 66 % 0.00 in 0.0 W/m2 CLR
20:03 68.5 °F 57.1 °F 29.97 in SE 2.5 mph 7.0 mph 67 % 0.00 in 0.0 W/m2 CLR
20:08 68.4 °F 57.0 °F 29.97 in ESE 1.8 mph 1.8 mph 67 % 0.00 in 0.0 W/m2 CLR
20:13 68.3 °F 56.9 °F 29.97 in ESE 0.1 mph 1.2 mph 67 % 0.00 in 0.0 W/m2 CLR
20:18 68.2 °F 56.8 °F 29.97 in ESE 3.5 mph 7.0 mph 67 % 0.00 in 0.0 W/m2 CLR
20:23 68.0 °F 56.6 °F 29.97 in ESE 3.1 mph 4.0 mph 67 % 0.00 in 0.0 W/m2 CLR
20:28 67.8 °F 56.4 °F 29.97 in ESE 4.6 mph 8.1 mph 67 % 0.00 in 0.0 W/m2 CLR
20:33 67.7 °F 56.3 °F 29.97 in East 4.2 mph 9.2 mph 67 % 0.00 in 0.0 W/m2 CLR
20:38 67.4 °F 56.1 °F 29.97 in SE 7.2 mph 10.4 mph 67 % 0.00 in 0.0 W/m2 CLR
20:43 67.3 °F 56.4 °F 29.97 in East 4.7 mph 6.9 mph 68 % 0.00 in 0.0 W/m2 CLR
20:48 67.1 °F 56.2 °F 29.97 in ESE 6.2 mph 10.4 mph 68 % 0.00 in 0.0 W/m2 CLR
20:53 66.7 °F 55.8 °F 29.98 in SE 4.4 mph 6.9 mph 68 % 0.00 in 0.0 W/m2 CLR
20:59 66.1 °F 55.6 °F 29.98 in ESE 7.4 mph 10.4 mph 69 % 0.00 in 0.0 W/m2 CLR
21:04 65.6 °F 55.2 °F 29.98 in SE 5.9 mph 10.4 mph 69 % 0.00 in 0.0 W/m2 CLR
21:09 65.2 °F 55.2 °F 29.98 in ESE 2.9 mph 8.1 mph 70 % 0.00 in 0.0 W/m2 CLR
21:14 65.0 °F 55.0 °F 29.99 in ESE 3.1 mph 6.9 mph 70 % 0.00 in 0.0 W/m2 CLR
21:19 64.6 °F 55.0 °F 29.98 in ESE 3.5 mph 6.9 mph 71 % 0.00 in 0.0 W/m2 CLR
21:24 64.3 °F 54.7 °F 29.99 in ESE 3.3 mph 8.0 mph 71 % 0.00 in 0.0 W/m2 CLR
21:29 64.0 °F 54.4 °F 30.00 in ESE 4.4 mph 10.0 mph 71 % 0.00 in 0.0 W/m2 CLR
21:34 63.5 °F 53.9 °F 30.00 in SE 4.7 mph 8.1 mph 71 % 0.00 in 0.0 W/m2 CLR
21:39 63.2 °F 54.0 °F 30.00 in ESE 3.3 mph 6.0 mph 72 % 0.00 in 0.0 W/m2 CLR
21:44 62.7 °F 53.5 °F 30.01 in Calm   1.2 mph 72 % 0.00 in 0.0 W/m2 CLR
21:49 62.3 °F 53.2 °F 30.01 in Calm   1.2 mph 72 % 0.00 in 0.0 W/m2 CLR
21:54 61.8 °F 53.1 °F 30.00 in ESE 3.3 mph 8.1 mph 73 % 0.00 in 0.0 W/m2 CLR
21:59 61.4 °F 52.7 °F 30.00 in ESE 4.3 mph 6.9 mph 73 % 0.00 in 0.0 W/m2 CLR
22:04 61.1 °F 52.7 °F 30.00 in South 2.8 mph 5.0 mph 74 % 0.00 in 0.0 W/m2 CLR
22:09 60.9 °F 52.6 °F 30.00 in ESE 4.7 mph 11.5 mph 74 % 0.00 in 0.0 W/m2 CLR
22:14 60.7 °F 52.4 °F 30.00 in ESE 3.2 mph 10.4 mph 74 % 0.00 in 0.0 W/m2 CLR
22:19 60.5 °F 52.5 °F 30.00 in SSE 2.9 mph 10.4 mph 75 % 0.00 in 0.0 W/m2 CLR
22:24 60.4 °F 52.4 °F 30.00 in SE 1.3 mph 6.9 mph 75 % 0.00 in 0.0 W/m2 CLR
22:29 60.5 °F 52.5 °F 30.00 in East 0.6 mph 5.8 mph 75 % 0.00 in 0.0 W/m2 CLR
22:34 60.1 °F 52.9 °F 30.00 in Calm   3.5 mph 77 % 0.01 in 0.0 W/m2 RA
22:39 59.6 °F 52.7 °F 30.00 in SSE 3.2 mph 3.5 mph 78 % 0.02 in 0.0 W/m2 RA
22:44 59.0 °F 52.8 °F 30.00 in East 0.6 mph 6.0 mph 80 % 0.03 in 0.0 W/m2 RA
22:49 58.6 °F 52.8 °F 30.00 in East 2.4 mph 3.5 mph 81 % 0.03 in 0.0 W/m2 RA
22:54 58.3 °F 52.8 °F 30.00 in Calm     82 % 0.03 in 0.0 W/m2
22:59 58.2 °F 53.1 °F 30.00 in South 2.5 mph 3.5 mph 83 % 0.03 in 0.0 W/m2
23:04 58.1 °F 53.0 °F 30.01 in ESE 3.9 mph 8.1 mph 83 % 0.03 in 0.0 W/m2
23:09 57.9 °F 52.4 °F 30.01 in ESE 2.3 mph 5.8 mph 82 % 0.04 in 0.0 W/m2 RA
23:14 58.0 °F 52.9 °F 30.01 in SE 0.3 mph 1.0 mph 83 % 0.04 in 0.0 W/m2 RA
23:19 57.7 °F 52.6 °F 30.01 in South 1.4 mph 4.6 mph 83 % 0.04 in 0.0 W/m2
23:24 57.5 °F 52.4 °F 30.00 in East 2.1 mph 3.5 mph 83 % 0.05 in 0.0 W/m2 RA
23:29 57.4 °F 52.3 °F 30.00 in East 0.5 mph 3.5 mph 83 % 0.05 in 0.0 W/m2 RA
23:34 57.3 °F 52.2 °F 30.00 in ESE 2.5 mph 3.5 mph 83 % 0.04 in 0.0 W/m2
23:39 57.1 °F 52.0 °F 30.00 in Calm   3.5 mph 83 % 0.03 in 0.0 W/m2
23:44 57.1 °F 52.3 °F 30.00 in SE 1.2 mph 3.0 mph 84 % 0.02 in 0.0 W/m2
23:49 56.9 °F 52.1 °F 29.99 in ESE 1.7 mph 3.5 mph 84 % 0.02 in 0.0 W/m2
23:54 56.8 °F 52.0 °F 30.00 in SE 0.5 mph 3.5 mph 84 % 0.02 in 0.0 W/m2
23:59 56.6 °F 51.8 °F 30.00 in SE 2.4 mph 4.0 mph 84 % 0.02 in 0.0 W/m2
Air Products Campus Weather
Compliments of Weather Underground - 3.5 mb